createdAt,value
2018-06-14T00:01:44.332Z,16.50
2018-06-14T00:04:16.476Z,17.00
2018-06-14T00:06:49.015Z,18.60
2018-06-14T00:09:21.848Z,18.80
2018-06-14T00:11:54.117Z,19.40
2018-06-14T00:14:26.308Z,19.40
2018-06-14T00:16:58.880Z,18.60
2018-06-14T00:19:31.274Z,19.10
2018-06-14T00:22:04.885Z,19.20
2018-06-14T00:24:37.314Z,16.80
2018-06-14T00:27:09.647Z,18.60
2018-06-14T00:29:52.248Z,19.90
2018-06-14T00:32:25.040Z,20.10
2018-06-14T00:34:57.269Z,20.10
2018-06-14T00:37:29.686Z,20.20
2018-06-14T00:40:02.784Z,23.00
2018-06-14T00:42:35.466Z,20.10
2018-06-14T00:45:07.809Z,19.00
2018-06-14T00:47:40.390Z,20.20
2018-06-14T00:50:12.772Z,20.10
2018-06-14T00:52:45.108Z,19.80
2018-06-14T00:55:17.191Z,19.80
2018-06-14T00:57:49.546Z,20.20
2018-06-14T01:00:22.011Z,18.80
2018-06-14T01:02:54.386Z,19.30
2018-06-14T01:05:28.093Z,21.50
2018-06-14T01:08:00.251Z,22.60
2018-06-14T01:10:32.957Z,19.90
2018-06-14T01:13:05.351Z,20.80
2018-06-14T01:15:37.886Z,21.70
2018-06-14T01:18:10.499Z,21.60
2018-06-14T01:20:42.776Z,22.90
2018-06-14T01:25:46.910Z,21.00
2018-06-14T01:28:19.675Z,21.10
2018-06-14T01:30:52.430Z,20.40
2018-06-14T01:33:25.037Z,22.50
2018-06-14T01:35:57.808Z,20.10
2018-06-14T01:38:30.292Z,20.10
2018-06-14T01:43:33.986Z,20.00
2018-06-14T01:46:06.612Z,18.10
2018-06-14T01:48:38.943Z,19.90
2018-06-14T01:51:11.512Z,18.50
2018-06-14T01:53:43.892Z,17.50
2018-06-14T01:56:16.420Z,17.60
2018-06-14T01:58:48.515Z,18.30
2018-06-14T02:01:20.864Z,17.60
2018-06-14T02:03:53.433Z,17.30
2018-06-14T02:06:26.061Z,16.40
2018-06-14T02:08:58.256Z,17.30
2018-06-14T02:11:30.672Z,18.00
2018-06-14T02:14:03.083Z,16.90
2018-06-14T02:16:35.492Z,17.80
2018-06-14T02:19:08.017Z,16.70
2018-06-14T02:21:40.385Z,17.20
2018-06-14T02:24:12.714Z,18.00
2018-06-14T02:26:45.074Z,18.70
2018-06-14T02:29:18.577Z,18.50
2018-06-14T02:31:50.829Z,19.90
2018-06-14T02:34:24.069Z,18.60
2018-06-14T02:36:56.784Z,19.00
2018-06-14T02:39:29.199Z,19.30
2018-06-14T02:42:02.131Z,19.10
2018-06-14T02:44:35.561Z,19.00
2018-06-14T02:47:08.109Z,19.50
2018-06-14T02:49:40.752Z,20.00
2018-06-14T02:52:13.302Z,20.00
2018-06-14T02:54:45.573Z,20.10
2018-06-14T02:57:17.687Z,20.30
2018-06-14T02:59:50.453Z,20.90
2018-06-14T03:02:22.827Z,22.20
2018-06-14T03:04:55.673Z,21.70
2018-06-14T03:07:34.916Z,21.80
2018-06-14T03:10:07.658Z,22.70
2018-06-14T03:12:39.915Z,23.80
2018-06-14T03:15:13.930Z,24.50
2018-06-14T03:17:46.510Z,23.70
2018-06-14T03:20:23.024Z,23.60
2018-06-14T03:22:56.869Z,23.30
2018-06-14T03:25:29.205Z,23.50
2018-06-14T03:28:01.966Z,23.50
2018-06-14T03:30:34.778Z,23.20
2018-06-14T03:33:07.489Z,24.00
2018-06-14T03:35:39.941Z,23.40
2018-06-14T03:38:12.169Z,23.40
2018-06-14T03:40:44.909Z,23.40
2018-06-14T03:43:17.861Z,24.00
2018-06-14T03:45:50.524Z,24.20
2018-06-14T03:48:22.864Z,24.50
2018-06-14T03:50:54.988Z,25.40
2018-06-14T03:53:27.131Z,23.30
2018-06-14T03:55:59.617Z,23.70
2018-06-14T03:58:32.039Z,23.10
2018-06-14T04:01:04.530Z,24.20
2018-06-14T04:03:37.147Z,23.60
2018-06-14T04:06:10.360Z,23.30
2018-06-14T04:08:42.991Z,23.00
2018-06-14T04:11:15.346Z,22.70
2018-06-14T04:13:47.735Z,23.70
2018-06-14T04:16:20.100Z,23.90
2018-06-14T04:18:53.223Z,24.30
2018-06-14T04:23:56.729Z,24.90
2018-06-14T04:26:30.394Z,24.90
2018-06-14T04:29:02.901Z,25.30
2018-06-14T04:31:35.284Z,25.20
2018-06-14T04:34:07.674Z,25.60
2018-06-14T04:39:12.852Z,26.80
2018-06-14T04:41:45.007Z,26.70
2018-06-14T04:44:17.458Z,27.40
2018-06-14T04:46:49.871Z,27.20
2018-06-14T04:49:22.083Z,26.60
2018-06-14T04:51:54.410Z,26.40
2018-06-14T04:54:26.810Z,27.10
2018-06-14T04:56:59.274Z,27.00
2018-06-14T04:59:31.484Z,26.90
2018-06-14T05:02:03.799Z,26.60
2018-06-14T05:04:36.192Z,27.10
2018-06-14T05:07:08.785Z,26.30
2018-06-14T05:09:42.870Z,26.70
2018-06-14T05:12:15.254Z,26.30
2018-06-14T05:14:47.649Z,27.00
2018-06-14T05:17:20.005Z,27.10
2018-06-14T05:19:52.567Z,27.20
2018-06-14T05:22:24.944Z,27.40
2018-06-14T05:24:57.520Z,27.60
2018-06-14T05:27:29.676Z,27.30
2018-06-14T05:30:02.074Z,28.20
2018-06-14T05:32:34.209Z,27.90
2018-06-14T05:35:06.863Z,27.90
2018-06-14T05:37:39.194Z,28.50
2018-06-14T05:40:12.144Z,27.90
2018-06-14T05:42:45.218Z,28.30
2018-06-14T05:45:18.180Z,28.90
2018-06-14T05:47:51.024Z,28.60
2018-06-14T05:50:24.165Z,29.10
2018-06-14T05:52:57.020Z,29.40
2018-06-14T05:58:00.428Z,29.70
2018-06-14T06:00:32.991Z,29.90
2018-06-14T06:03:05.345Z,30.90
2018-06-14T06:05:37.607Z,32.10
2018-06-14T06:08:09.749Z,31.40
2018-06-14T06:10:42.364Z,31.90
2018-06-14T06:13:14.783Z,32.40
2018-06-14T06:15:47.418Z,33.90
2018-06-14T06:18:19.763Z,32.40
2018-06-14T06:20:52.135Z,33.20
2018-06-14T06:23:24.258Z,32.80
2018-06-14T06:25:56.635Z,33.30
2018-06-14T06:28:28.733Z,33.80
2018-06-14T06:31:00.932Z,34.80
2018-06-14T06:33:33.462Z,35.80
2018-06-14T06:36:05.860Z,35.40
2018-06-14T06:38:38.209Z,37.30
2018-06-14T06:41:10.823Z,37.80
2018-06-14T06:43:43.369Z,37.20
2018-06-14T06:46:15.920Z,37.60
2018-06-14T06:48:48.332Z,38.00
2018-06-14T06:51:20.738Z,38.00
2018-06-14T06:53:52.875Z,36.90
2018-06-14T06:56:25.294Z,37.70
2018-06-14T06:58:57.663Z,39.20
2018-06-14T07:01:29.980Z,39.60
2018-06-14T07:04:02.167Z,40.30
2018-06-14T07:06:35.295Z,40.30
2018-06-14T07:09:12.511Z,41.10
2018-06-14T07:11:45.012Z,41.20
2018-06-14T07:14:17.360Z,40.80
2018-06-14T07:16:49.559Z,41.20
2018-06-14T07:19:21.926Z,42.10
2018-06-14T07:21:54.601Z,41.50
2018-06-14T07:26:58.387Z,42.30
2018-06-14T07:29:30.610Z,42.50
2018-06-14T07:32:03.156Z,42.40
2018-06-14T07:34:35.560Z,43.10
2018-06-14T07:37:08.013Z,44.10
2018-06-14T07:39:40.164Z,44.00
2018-06-14T07:42:12.317Z,42.80
2018-06-14T07:44:44.735Z,42.70
2018-06-14T07:47:17.506Z,43.70
2018-06-14T07:49:49.832Z,44.30
2018-06-14T07:52:22.408Z,44.70
2018-06-14T07:54:54.996Z,45.20
2018-06-14T07:57:27.480Z,43.60
2018-06-14T07:59:59.609Z,44.50
2018-06-14T08:02:32.123Z,43.00
2018-06-14T08:05:04.853Z,43.20
2018-06-14T08:07:37.284Z,42.60
2018-06-14T08:10:09.630Z,42.90
2018-06-14T08:12:41.994Z,43.40
2018-06-14T08:15:14.297Z,43.50
2018-06-14T08:17:46.681Z,43.70
2018-06-14T08:20:19.235Z,43.30
2018-06-14T08:22:52.093Z,42.40
2018-06-14T08:25:24.368Z,42.10
2018-06-14T08:27:56.736Z,42.10
2018-06-14T08:30:29.209Z,42.50
2018-06-14T08:33:01.829Z,42.70
2018-06-14T08:35:34.332Z,43.30
2018-06-14T08:38:06.750Z,43.40
2018-06-14T08:40:39.587Z,43.70
2018-06-14T08:43:11.941Z,45.00
2018-06-14T08:45:44.276Z,44.90
2018-06-14T08:48:16.323Z,45.50
2018-06-14T08:50:48.952Z,45.20
2018-06-14T08:53:21.467Z,45.50
2018-06-14T08:55:54.035Z,45.00
2018-06-14T08:58:26.423Z,45.00
2018-06-14T09:00:58.836Z,46.10
2018-06-14T09:03:31.170Z,45.60
2018-06-14T09:06:04.006Z,44.30
2018-06-14T09:08:36.333Z,44.20
2018-06-14T09:11:08.741Z,44.10
2018-06-14T09:13:40.896Z,44.70
2018-06-14T09:16:13.485Z,44.50
2018-06-14T09:18:45.794Z,44.60
2018-06-14T09:21:18.311Z,44.00
2018-06-14T09:23:50.453Z,44.80
2018-06-14T09:26:23.018Z,45.50
2018-06-14T09:28:55.440Z,45.10
2018-06-14T09:31:27.600Z,46.20
2018-06-14T09:34:00.206Z,45.90
2018-06-14T09:36:33.592Z,45.80
2018-06-14T09:41:38.407Z,45.70
2018-06-14T09:44:10.966Z,45.70
2018-06-14T09:46:43.405Z,46.70
2018-06-14T09:49:18.068Z,45.70
2018-06-14T09:51:50.399Z,46.70
2018-06-14T09:54:22.653Z,45.50
2018-06-14T09:56:55.167Z,44.80
2018-06-14T09:59:27.713Z,45.90
2018-06-14T10:01:59.977Z,45.20
2018-06-14T10:04:32.239Z,45.60
2018-06-14T10:07:05.291Z,45.60
2018-06-14T10:09:37.690Z,46.00
2018-06-14T10:14:41.089Z,44.60
2018-06-14T10:17:13.396Z,46.20
2018-06-14T10:19:45.993Z,45.10
2018-06-14T10:22:18.404Z,44.40
2018-06-14T10:24:50.920Z,45.10
2018-06-14T10:27:23.125Z,46.50
2018-06-14T10:29:55.491Z,46.70
2018-06-14T10:32:27.935Z,45.60
2018-06-14T10:35:00.049Z,45.80
2018-06-14T10:37:32.604Z,46.10
2018-06-14T10:40:05.049Z,45.50
2018-06-14T10:42:37.261Z,45.50
2018-06-14T10:45:09.794Z,45.70
2018-06-14T10:47:42.202Z,44.40
2018-06-14T10:50:14.325Z,44.90
2018-06-14T10:52:46.725Z,45.20
2018-06-14T10:55:19.101Z,46.60
2018-06-14T10:57:51.188Z,46.90
2018-06-14T11:00:23.702Z,46.20
2018-06-14T11:02:55.922Z,45.80
2018-06-14T11:05:28.481Z,46.60
2018-06-14T11:08:00.851Z,46.40
2018-06-14T11:10:33.212Z,47.10
2018-06-14T11:13:05.996Z,46.70
2018-06-14T11:15:38.576Z,48.40
2018-06-14T11:18:11.176Z,48.50
2018-06-14T11:20:43.744Z,48.40
2018-06-14T11:23:16.154Z,49.40
2018-06-14T11:25:48.590Z,48.90
2018-06-14T11:28:21.006Z,49.30
2018-06-14T11:30:53.324Z,49.20
2018-06-14T11:33:25.931Z,50.20
2018-06-14T11:35:58.831Z,50.20
2018-06-14T11:41:02.597Z,51.50
2018-06-14T11:43:34.786Z,51.00
2018-06-14T11:46:07.497Z,52.20
2018-06-14T11:48:40.168Z,51.70
2018-06-14T11:51:12.523Z,51.70
2018-06-14T11:53:44.738Z,51.10
2018-06-14T11:56:17.079Z,51.40
2018-06-14T11:58:49.303Z,50.70
2018-06-14T12:01:21.765Z,52.90
2018-06-14T12:03:54.636Z,52.40
2018-06-14T12:06:26.692Z,53.20
2018-06-14T12:08:59.148Z,51.00
2018-06-14T12:11:31.453Z,52.70
2018-06-14T12:14:03.854Z,52.60
2018-06-14T12:16:36.381Z,52.10
2018-06-14T12:19:09.013Z,52.20
2018-06-14T12:21:41.372Z,52.10
2018-06-14T12:24:13.746Z,52.40
2018-06-14T12:26:46.199Z,52.00
2018-06-14T12:29:18.569Z,51.00
2018-06-14T12:31:50.744Z,50.90
2018-06-14T12:34:23.530Z,51.20
2018-06-14T12:36:56.089Z,51.40
2018-06-14T12:39:28.321Z,52.90
2018-06-14T12:42:00.541Z,52.50
2018-06-14T12:44:33.121Z,53.00
2018-06-14T12:47:05.330Z,53.20
2018-06-14T12:49:38.058Z,55.20
2018-06-14T12:52:10.337Z,55.80
2018-06-14T12:54:42.701Z,55.60
2018-06-14T12:57:15.067Z,55.70
2018-06-14T12:59:47.469Z,55.50
2018-06-14T13:02:19.928Z,56.70
2018-06-14T13:04:52.305Z,56.90
2018-06-14T13:07:25.653Z,57.20
2018-06-14T13:09:58.289Z,56.90
2018-06-14T13:12:30.661Z,57.40
2018-06-14T13:15:03.287Z,57.40
2018-06-14T13:17:35.797Z,58.30
2018-06-14T13:20:08.419Z,58.10
2018-06-14T13:22:40.934Z,57.70
2018-06-14T13:25:13.542Z,58.90
2018-06-14T13:27:46.043Z,58.30
2018-06-14T13:30:18.701Z,56.10
2018-06-14T13:32:51.317Z,56.70
2018-06-14T13:35:23.977Z,56.00
2018-06-14T13:37:56.517Z,57.10
2018-06-14T13:40:28.689Z,55.70
2018-06-14T13:43:00.938Z,55.50
2018-06-14T13:45:33.216Z,52.70
2018-06-14T13:48:05.552Z,53.10
2018-06-14T13:50:38.033Z,49.90
2018-06-14T13:53:10.656Z,49.60
2018-06-14T13:55:43.253Z,48.70
2018-06-14T13:58:15.392Z,48.60
2018-06-14T14:00:47.906Z,45.80
2018-06-14T14:03:20.178Z,45.30
2018-06-14T14:08:24.538Z,43.70
2018-06-14T14:10:56.780Z,42.80
2018-06-14T14:13:29.474Z,43.60
2018-06-14T14:16:02.054Z,44.30
2018-06-14T14:18:34.468Z,42.80
2018-06-14T14:21:06.831Z,36.90
2018-06-14T14:23:39.379Z,36.70
2018-06-14T14:26:11.845Z,40.50
2018-06-14T14:28:44.128Z,39.40
2018-06-14T14:31:16.370Z,40.40
2018-06-14T14:33:48.893Z,40.20
2018-06-14T14:36:21.366Z,38.70
2018-06-14T14:38:53.697Z,41.10
2018-06-14T14:41:25.964Z,38.30
2018-06-14T14:43:58.457Z,38.30
2018-06-14T14:46:30.848Z,39.80
2018-06-14T14:49:03.302Z,37.50
2018-06-14T14:51:35.680Z,36.00
2018-06-14T14:54:08.243Z,36.50
2018-06-14T14:56:40.630Z,33.70
2018-06-14T14:59:12.623Z,33.10
2018-06-14T15:01:44.998Z,32.60
2018-06-14T15:04:17.365Z,32.30
2018-06-14T15:06:50.006Z,33.90
2018-06-14T15:09:22.117Z,34.40
2018-06-14T15:11:54.694Z,35.40
2018-06-14T15:14:27.490Z,33.50
2018-06-14T15:16:59.814Z,35.00
2018-06-14T15:19:32.198Z,33.50
2018-06-14T15:22:05.123Z,33.60
2018-06-14T15:24:37.149Z,33.60
2018-06-14T15:27:09.788Z,33.60
2018-06-14T15:29:41.946Z,33.70
2018-06-14T15:32:14.784Z,33.20
2018-06-14T15:34:47.001Z,33.60
2018-06-14T15:37:19.144Z,34.30
2018-06-14T15:39:51.459Z,34.30
2018-06-14T15:42:24.041Z,32.60
2018-06-14T15:44:56.570Z,36.80
2018-06-14T15:47:29.143Z,32.70
2018-06-14T15:50:01.539Z,32.20
2018-06-14T15:52:33.772Z,32.00
2018-06-14T15:55:15.022Z,30.10
2018-06-14T15:57:47.594Z,33.80
2018-06-14T16:00:19.991Z,31.70
2018-06-14T16:02:52.148Z,25.00
2018-06-14T16:05:24.687Z,23.40
2018-06-14T16:07:57.667Z,18.30
2018-06-14T16:10:30.253Z,15.70
2018-06-14T16:13:02.665Z,13.00
2018-06-14T16:15:34.982Z,13.50
2018-06-14T16:18:07.592Z,11.40
2018-06-14T16:20:39.968Z,13.40
2018-06-14T16:23:12.324Z,15.30
2018-06-14T16:25:44.670Z,13.00
2018-06-14T16:28:16.973Z,13.00
2018-06-14T16:30:49.309Z,11.50
2018-06-14T16:33:21.953Z,11.00
2018-06-14T16:35:54.610Z,10.80
2018-06-14T16:38:26.989Z,9.80
2018-06-14T16:40:59.403Z,11.60
2018-06-14T16:43:31.716Z,13.10
2018-06-14T16:46:04.718Z,15.70
2018-06-14T16:48:37.031Z,17.40
2018-06-14T16:51:10.227Z,18.30
2018-06-14T16:53:42.838Z,19.80
2018-06-14T16:56:15.197Z,21.30
2018-06-14T16:58:47.700Z,20.50
2018-06-14T17:01:20.127Z,22.90
2018-06-14T17:03:52.914Z,23.70
2018-06-14T17:06:25.512Z,21.70
2018-06-14T17:08:58.074Z,22.00
2018-06-14T17:11:30.446Z,21.00
2018-06-14T17:14:03.057Z,20.20
2018-06-14T17:16:35.587Z,23.00
2018-06-14T17:19:08.009Z,23.50
2018-06-14T17:21:40.745Z,19.10
2018-06-14T17:24:13.146Z,18.20
2018-06-14T17:26:45.523Z,14.70
2018-06-14T17:29:17.894Z,19.10
2018-06-14T17:31:50.775Z,15.70
2018-06-14T17:34:23.444Z,16.00
2018-06-14T17:36:55.715Z,13.80
2018-06-14T17:39:27.891Z,7.50
2018-06-14T17:42:00.510Z,10.00
2018-06-14T17:44:32.992Z,10.80
2018-06-14T17:47:05.364Z,10.90
2018-06-14T17:49:37.967Z,11.50
2018-06-14T17:52:10.380Z,10.70
2018-06-14T17:54:42.561Z,9.90
2018-06-14T17:57:15.030Z,11.30
2018-06-14T17:59:47.459Z,13.30
2018-06-14T18:02:19.816Z,14.70
2018-06-14T18:04:52.226Z,14.70
2018-06-14T18:07:24.853Z,13.50
2018-06-14T18:09:57.239Z,19.70
2018-06-14T18:12:29.589Z,18.80
2018-06-14T18:15:02.048Z,19.00
2018-06-14T18:17:34.205Z,16.00
2018-06-14T18:20:06.553Z,17.50
2018-06-14T18:22:38.885Z,17.40
2018-06-14T18:25:11.632Z,19.50
2018-06-14T18:27:44.165Z,17.10
2018-06-14T18:30:16.812Z,13.20
2018-06-14T18:32:49.092Z,16.10
2018-06-14T18:35:21.518Z,10.60
2018-06-14T18:37:54.634Z,9.50
2018-06-14T18:40:27.057Z,7.70
2018-06-14T18:42:59.436Z,6.80
2018-06-14T18:45:32.745Z,5.00
2018-06-14T18:48:05.243Z,5.00
2018-06-14T18:50:37.799Z,8.40
2018-06-14T18:53:09.930Z,10.00
2018-06-14T18:55:42.578Z,9.40
2018-06-14T18:58:15.062Z,9.80
2018-06-14T19:00:48.128Z,8.50
2018-06-14T19:03:20.765Z,10.60
2018-06-14T19:05:53.318Z,12.30
2018-06-14T19:08:26.645Z,15.50
2018-06-14T19:10:59.088Z,19.60
2018-06-14T19:13:31.520Z,20.90
2018-06-14T19:16:04.544Z,16.90
2018-06-14T19:18:36.994Z,20.00
2018-06-14T19:21:09.495Z,17.90
2018-06-14T19:23:41.809Z,13.20
2018-06-14T19:26:14.275Z,12.60
2018-06-14T19:31:18.343Z,12.70
2018-06-14T19:33:50.695Z,12.20
2018-06-14T19:36:22.984Z,12.30
2018-06-14T19:38:55.330Z,10.40
2018-06-14T19:41:27.749Z,10.90
2018-06-14T19:44:00.440Z,10.40
2018-06-14T19:46:32.777Z,10.60
2018-06-14T19:49:04.862Z,12.20
2018-06-14T19:51:37.247Z,12.50
2018-06-14T19:54:09.752Z,10.20
2018-06-14T19:56:42.458Z,10.20
2018-06-14T19:59:15.007Z,12.70
2018-06-14T20:01:47.323Z,14.30
2018-06-14T20:04:19.762Z,12.50
2018-06-14T20:06:52.107Z,12.40
2018-06-14T20:09:24.637Z,13.90
2018-06-14T20:11:57.037Z,13.30
2018-06-14T20:14:29.431Z,12.70
2018-06-14T20:17:02.551Z,11.90
2018-06-14T20:19:34.992Z,9.80
2018-06-14T20:22:07.768Z,10.80
2018-06-14T20:24:40.448Z,11.70
2018-06-14T20:27:12.924Z,13.80
2018-06-14T20:29:45.140Z,11.50
2018-06-14T20:32:17.614Z,10.60
2018-06-14T20:34:49.925Z,11.20
2018-06-14T20:37:22.553Z,14.20
2018-06-14T20:39:54.800Z,18.40
2018-06-14T20:42:27.134Z,13.30
2018-06-14T20:44:59.576Z,14.90
2018-06-14T20:47:31.880Z,12.00
2018-06-14T20:50:04.242Z,10.40
2018-06-14T20:52:36.820Z,13.00
2018-06-14T20:55:09.138Z,11.50
2018-06-14T20:57:41.513Z,9.00
2018-06-14T21:00:14.079Z,10.30
2018-06-14T21:02:46.378Z,9.10
2018-06-14T21:05:18.538Z,9.80
2018-06-14T21:07:51.226Z,12.00
2018-06-14T21:10:23.731Z,12.80
2018-06-14T21:12:56.500Z,11.70
2018-06-14T21:15:28.669Z,11.60
2018-06-14T21:20:32.464Z,12.10
2018-06-14T21:23:05.381Z,16.60
2018-06-14T21:25:38.057Z,14.20
2018-06-14T21:28:10.334Z,12.80
2018-06-14T21:33:13.961Z,14.90
2018-06-14T21:35:46.485Z,14.70
2018-06-14T21:38:18.656Z,14.70
2018-06-14T21:40:50.867Z,14.20
2018-06-14T21:43:23.265Z,13.60
2018-06-14T21:45:55.573Z,14.10
2018-06-14T21:48:27.970Z,17.60
2018-06-14T21:51:00.516Z,14.00
2018-06-14T21:53:32.728Z,18.10
2018-06-14T21:56:04.949Z,14.50
2018-06-14T21:58:37.477Z,15.80
2018-06-14T22:01:10.882Z,15.60
2018-06-14T22:03:48.092Z,17.40
2018-06-14T22:06:20.788Z,18.30
2018-06-14T22:08:54.056Z,18.30
2018-06-14T22:11:26.152Z,16.00
2018-06-14T22:13:58.721Z,19.30
2018-06-14T22:16:30.780Z,16.40
2018-06-14T22:19:03.191Z,17.80
2018-06-14T22:21:35.403Z,15.80
2018-06-14T22:24:07.627Z,12.10
2018-06-14T22:26:40.040Z,13.90
2018-06-14T22:29:12.340Z,13.00
2018-06-14T22:31:44.709Z,16.50
2018-06-14T22:34:26.728Z,13.90
2018-06-14T22:36:59.263Z,15.70
2018-06-14T22:39:31.865Z,13.30
2018-06-14T22:42:04.197Z,12.70
2018-06-14T22:44:36.768Z,16.10
2018-06-14T22:49:40.621Z,13.30
2018-06-14T22:52:52.450Z,14.60
2018-06-14T22:55:25.641Z,13.10
2018-06-14T22:57:58.106Z,14.80
2018-06-14T23:03:05.996Z,13.40
2018-06-14T23:05:38.226Z,12.90
2018-06-14T23:08:10.527Z,13.70
2018-06-14T23:10:52.341Z,11.90
2018-06-14T23:13:24.882Z,12.00
2018-06-14T23:15:57.308Z,14.30
2018-06-14T23:18:29.815Z,12.70
2018-06-14T23:21:02.851Z,12.60
2018-06-14T23:23:34.986Z,13.70
2018-06-14T23:26:07.524Z,12.70
2018-06-14T23:28:40.139Z,12.30
2018-06-14T23:31:12.741Z,11.60
2018-06-14T23:33:45.081Z,13.60
2018-06-14T23:36:17.478Z,13.80
2018-06-14T23:38:50.032Z,13.20
2018-06-14T23:41:22.447Z,15.10
2018-06-14T23:43:54.847Z,14.50
2018-06-14T23:46:27.122Z,15.00
2018-06-14T23:48:59.524Z,14.10
2018-06-14T23:51:31.797Z,16.30
2018-06-14T23:54:05.369Z,17.70
2018-06-14T23:56:38.010Z,17.70
2018-06-14T23:59:10.320Z,18.50
